York — 9VED8 — position and weather

sailwx.info

Track history (hours):
 
Tides and Currents Weather Stations Pressure Air Temp Water Temp Dewpoint Dewpoint Depression Visibility Wind Speed Wind Dir Waves Ship Positions

York

Last reported at 2014-Nov-09 07:15 UTC. Time now 2014-Dec-19 10:09 UTC.
Position N 45°11' E 036°29'.
Warning: this ship's position is 40 days out of date.

Length 100 m; draft 4.4 m.

Type: Tanker. MMSI: 565525000.

Date/timePositionNaut miles runAvg speedWind from/ knotsBaromVisibWave heightAir tempDewpointWater temp
2014-Nov-09 07:15N 45°11' E 036°29'0 0.0
2014-Nov-08 15:27N 45°11' E 036°29'  
2014-Nov-04 15:24N 44°21' E 035°30'1111.8
2014-Nov-04 14:28N 44°15' E 035°17'1211.8
2014-Nov-04 13:27N 44°08' E 035°03'1611.6
2014-Nov-04 12:04N 43°60' E 034°44'711.7
2014-Nov-04 11:29N 43°56' E 034°36'1611.8
2014-Nov-04 10:08N 43°48' E 034°17'288 9.4
2014-Nov-03 03:31N 40°60' E 028°60'7 6.8
2014-Nov-03 02:33N 40°55' E 028°54'2 1.5
2014-Nov-03 01:07N 40°57' E 028°53'0 0.0
2014-Nov-02 21:25N 40°57' E 028°53'0 0.0
2014-Nov-02 17:07N 40°57' E 028°53'0 0.5
2014-Nov-02 16:17N 40°57' E 028°53'7 9.3
2014-Nov-02 15:32N 40°53' E 029°01'1111.6
2014-Nov-02 14:33N 40°47' E 029°13'1110.4
2014-Nov-02 13:31N 40°45' E 029°28'8 8.4
2014-Nov-02 12:31N 40°45' E 029°39'  
2014-Oct-30 19:14N 40°45' E 029°30'7 9.5
2014-Oct-30 18:33N 40°43' E 029°22'8 8.5
2014-Oct-30 17:33N 40°46' E 029°11'1111.3
2014-Oct-30 16:33N 40°51' E 028°58'2411.1
2014-Oct-30 14:24N 41°14' E 029°08'4 4.2
2014-Oct-30 13:24N 41°17' E 029°05'1 1.6
2014-Oct-30 12:32N 41°19' E 029°05'2 1.6
2014-Oct-30 11:33N 41°20' E 029°05'  
Track history (hours):
 
Tides and Currents Weather Stations Pressure Air Temp Water Temp Dewpoint Dewpoint Depression Visibility Wind Speed Wind Dir Waves Ship Positions

York

Last reported at 2014-Nov-09 07:15 UTC. Time now 2014-Dec-19 10:09 UTC.
Position N 45°11' E 036°29'.
Warning: this ship's position is 40 days out of date.

Length 100 m; draft 4.4 m.

Type: Tanker. MMSI: 565525000.

Date/timePositionNaut miles runAvg speedWind from/ knotsBaromVisibWave heightAir tempDewpointWater temp
2014-Nov-09 07:15N 45°11' E 036°29'0 0.0
2014-Nov-08 15:27N 45°11' E 036°29'  
2014-Nov-04 15:24N 44°21' E 035°30'1111.8
2014-Nov-04 14:28N 44°15' E 035°17'1211.8
2014-Nov-04 13:27N 44°08' E 035°03'1611.6
2014-Nov-04 12:04N 43°60' E 034°44'711.7
2014-Nov-04 11:29N 43°56' E 034°36'1611.8
2014-Nov-04 10:08N 43°48' E 034°17'288 9.4
2014-Nov-03 03:31N 40°60' E 028°60'7 6.8
2014-Nov-03 02:33N 40°55' E 028°54'2 1.5
2014-Nov-03 01:07N 40°57' E 028°53'0 0.0
2014-Nov-02 21:25N 40°57' E 028°53'0 0.0
2014-Nov-02 17:07N 40°57' E 028°53'0 0.5
2014-Nov-02 16:17N 40°57' E 028°53'7 9.3
2014-Nov-02 15:32N 40°53' E 029°01'1111.6
2014-Nov-02 14:33N 40°47' E 029°13'1110.4
2014-Nov-02 13:31N 40°45' E 029°28'8 8.4
2014-Nov-02 12:31N 40°45' E 029°39'  
2014-Oct-30 19:14N 40°45' E 029°30'7 9.5
2014-Oct-30 18:33N 40°43' E 029°22'8 8.5
2014-Oct-30 17:33N 40°46' E 029°11'1111.3
2014-Oct-30 16:33N 40°51' E 028°58'2411.1
2014-Oct-30 14:24N 41°14' E 029°08'4 4.2
2014-Oct-30 13:24N 41°17' E 029°05'1 1.6
2014-Oct-30 12:32N 41°19' E 029°05'2 1.6
2014-Oct-30 11:33N 41°20' E 029°05'  

Dump ship's entire track history